createdAt,value
2019-04-11T00:02:04.654Z,9.13
2019-04-11T00:04:34.487Z,10.00
2019-04-11T00:07:05.898Z,10.10
2019-04-11T00:09:35.584Z,9.53
2019-04-11T00:12:06.780Z,9.17
2019-04-11T00:14:36.255Z,8.30
2019-04-11T00:17:05.852Z,8.53
2019-04-11T00:19:35.816Z,9.43
2019-04-11T00:22:05.737Z,8.93
2019-04-11T00:24:36.667Z,9.00
2019-04-11T00:27:06.583Z,9.97
2019-04-11T00:29:36.572Z,8.67
2019-04-11T00:32:09.068Z,8.73
2019-04-11T00:34:37.456Z,7.13
2019-04-11T00:37:07.131Z,8.40
2019-04-11T00:39:37.538Z,8.37
2019-04-11T00:42:07.241Z,8.67
2019-04-11T00:44:36.903Z,8.20
2019-04-11T00:47:06.922Z,7.57
2019-04-11T00:49:36.717Z,7.93
2019-04-11T00:52:06.548Z,8.33
2019-04-11T00:54:36.350Z,7.93
2019-04-11T00:57:06.552Z,8.93
2019-04-11T00:59:36.358Z,7.40
2019-04-11T01:02:07.307Z,9.37
2019-04-11T01:04:37.117Z,8.27
2019-04-11T01:07:06.928Z,7.37
2019-04-11T01:09:36.766Z,8.60
2019-04-11T01:12:06.440Z,8.73
2019-04-11T01:14:37.289Z,7.67
2019-04-11T01:17:07.855Z,9.13
2019-04-11T01:19:38.616Z,8.67
2019-04-11T01:22:09.836Z,9.67
2019-04-11T01:24:39.889Z,8.60
2019-04-11T01:27:09.880Z,9.07
2019-04-11T01:29:39.819Z,8.77
2019-04-11T01:32:11.006Z,8.87
2019-04-11T01:34:40.636Z,9.67
2019-04-11T01:37:11.317Z,8.83
2019-04-11T01:39:43.400Z,7.10
2019-04-11T01:42:13.240Z,9.33
2019-04-11T01:44:43.037Z,7.60
2019-04-11T01:47:14.990Z,7.73
2019-04-11T01:49:44.599Z,9.20
2019-04-11T01:52:14.164Z,8.13
2019-04-11T01:54:43.886Z,8.93
2019-04-11T01:57:13.853Z,8.10
2019-04-11T01:59:43.821Z,8.33
2019-04-11T02:02:15.168Z,8.23
2019-04-11T02:04:46.280Z,8.43
2019-04-11T02:07:15.753Z,8.10
2019-04-11T02:09:46.311Z,8.67
2019-04-11T02:12:16.270Z,9.33
2019-04-11T02:14:47.916Z,9.03
2019-04-11T02:17:18.785Z,9.50
2019-04-11T02:19:48.493Z,9.90
2019-04-11T02:22:19.605Z,8.40
2019-04-11T02:24:50.727Z,9.40
2019-04-11T02:27:23.301Z,8.73
2019-04-11T02:29:53.078Z,9.03
2019-04-11T02:32:25.410Z,9.10
2019-04-11T02:34:58.932Z,8.40
2019-04-11T02:37:26.378Z,8.97
2019-04-11T02:39:57.860Z,7.57
2019-04-11T02:42:27.700Z,8.07
2019-04-11T02:45:13.772Z,7.67
2019-04-11T02:47:32.758Z,7.80
2019-04-11T02:50:01.212Z,8.10
2019-04-11T02:52:31.260Z,7.57
2019-04-11T02:55:00.972Z,7.87
2019-04-11T02:57:32.142Z,8.00
2019-04-11T03:00:04.217Z,7.70
2019-04-11T03:02:34.707Z,8.20
2019-04-11T03:05:06.946Z,7.57
2019-04-11T03:07:37.947Z,7.57
2019-04-11T03:10:09.902Z,8.43
2019-04-11T03:12:40.511Z,7.57
2019-04-11T03:15:28.275Z,7.40
2019-04-11T03:17:44.564Z,8.90
2019-04-11T03:20:25.889Z,7.67
2019-04-11T03:22:46.108Z,7.70
2019-04-11T03:25:16.205Z,8.50
2019-04-11T03:27:47.399Z,8.47
2019-04-11T03:30:23.960Z,7.90
2019-04-11T03:33:46.873Z,7.73
2019-04-11T03:38:19.533Z,7.27
2019-04-11T03:40:43.719Z,8.33
2019-04-11T03:43:10.727Z,9.27
2019-04-11T03:45:48.071Z,8.00
2019-04-11T03:48:12.385Z,7.80
2019-04-11T03:50:34.319Z,8.37
2019-04-11T03:53:14.367Z,8.20
2019-04-11T03:55:45.506Z,8.03
2019-04-11T03:58:17.296Z,8.13
2019-04-11T04:00:49.622Z,8.97
2019-04-11T04:03:20.078Z,9.23
2019-04-11T04:05:50.613Z,8.60
2019-04-11T04:08:22.300Z,9.20
2019-04-11T04:10:56.345Z,9.10
2019-04-11T04:13:28.279Z,9.50
2019-04-11T04:16:10.818Z,8.63
2019-04-11T04:18:32.665Z,7.73
2019-04-11T04:21:08.236Z,8.80
2019-04-11T04:23:38.057Z,8.87
2019-04-11T04:26:10.529Z,9.60
2019-04-11T04:28:40.826Z,8.90
2019-04-11T04:31:11.499Z,10.03
2019-04-11T04:33:42.826Z,9.57
2019-04-11T04:36:13.882Z,9.80
2019-04-11T04:38:44.564Z,9.50
2019-04-11T04:41:26.566Z,8.67
2019-04-11T04:43:48.092Z,8.70
2019-04-11T04:46:34.809Z,9.93
2019-04-11T04:48:51.090Z,9.20
2019-04-11T04:51:24.091Z,9.33
2019-04-11T04:53:52.458Z,10.07
2019-04-11T04:56:26.592Z,9.67
2019-04-11T04:58:54.053Z,9.17
2019-04-11T05:01:24.020Z,8.67
2019-04-11T05:03:56.248Z,10.10
2019-04-11T05:06:26.196Z,11.30
2019-04-11T05:08:56.107Z,10.20
2019-04-11T05:11:26.208Z,10.00
2019-04-11T05:13:56.653Z,9.77
2019-04-11T05:16:26.423Z,9.33
2019-04-11T05:18:56.688Z,9.83
2019-04-11T05:21:27.635Z,9.67
2019-04-11T05:23:58.483Z,10.77
2019-04-11T05:26:28.160Z,9.97
2019-04-11T05:28:57.662Z,11.13
2019-04-11T05:31:27.168Z,10.20
2019-04-11T05:33:56.620Z,10.67
2019-04-11T05:36:26.220Z,10.73
2019-04-11T05:38:55.692Z,9.13
2019-04-11T05:41:26.215Z,11.23
2019-04-11T05:43:55.835Z,9.87
2019-04-11T05:46:33.454Z,11.00
2019-04-11T05:49:00.653Z,10.73
2019-04-11T05:51:36.960Z,9.57
2019-04-11T05:54:05.810Z,9.93
2019-04-11T05:56:33.934Z,10.70
2019-04-11T05:59:05.402Z,11.27
2019-04-11T06:01:36.588Z,9.90
2019-04-11T06:04:07.938Z,11.03
2019-04-11T06:06:40.126Z,11.50
2019-04-11T06:09:13.323Z,10.73
2019-04-11T06:11:45.278Z,10.53
2019-04-11T06:14:17.292Z,11.33
2019-04-11T06:16:52.630Z,10.90
2019-04-11T06:19:21.221Z,10.63
2019-04-11T06:21:52.635Z,11.30
2019-04-11T06:24:23.913Z,12.07
2019-04-11T06:26:55.041Z,11.03
2019-04-11T06:29:27.765Z,13.03
2019-04-11T06:31:59.221Z,12.83
2019-04-11T06:34:30.487Z,12.87
2019-04-11T06:37:01.665Z,13.00
2019-04-11T06:39:31.469Z,11.63
2019-04-11T06:42:04.210Z,11.47
2019-04-11T06:44:34.227Z,11.93
2019-04-11T06:47:05.483Z,12.17
2019-04-11T06:49:38.415Z,9.20
2019-04-11T06:52:10.722Z,10.93
2019-04-11T06:54:43.312Z,11.17
2019-04-11T06:57:14.562Z,10.93
2019-04-11T06:59:45.612Z,10.97
2019-04-11T07:02:19.708Z,7.63
2019-04-11T07:04:47.840Z,12.63
2019-04-11T07:07:18.520Z,11.73
2019-04-11T07:09:50.087Z,11.17
2019-04-11T07:12:19.445Z,11.47
2019-04-11T07:14:52.869Z,12.67
2019-04-11T07:17:24.089Z,10.93
2019-04-11T07:19:55.820Z,11.23
2019-04-11T07:22:26.917Z,10.90
2019-04-11T07:24:57.932Z,12.10
2019-04-11T07:27:29.012Z,9.40
2019-04-11T07:29:59.993Z,11.83
2019-04-11T07:32:29.878Z,11.67
2019-04-11T07:35:02.279Z,14.27
2019-04-11T07:37:33.524Z,12.23
2019-04-11T07:40:06.219Z,12.87
2019-04-11T07:42:39.066Z,11.13
2019-04-11T07:45:13.035Z,11.10
2019-04-11T07:47:43.906Z,12.47
2019-04-11T07:50:16.497Z,11.83
2019-04-11T07:52:46.929Z,12.43
2019-04-11T07:55:18.957Z,12.57
2019-04-11T07:57:50.055Z,10.87
2019-04-11T08:00:34.933Z,13.30
2019-04-11T08:02:53.151Z,12.73
2019-04-11T08:05:24.614Z,14.97
2019-04-11T08:07:55.668Z,12.50
2019-04-11T08:10:27.203Z,11.27
2019-04-11T08:12:58.504Z,11.93
2019-04-11T08:15:29.607Z,12.77
2019-04-11T08:18:01.774Z,13.33
2019-04-11T08:20:33.294Z,10.57
2019-04-11T08:23:05.577Z,13.47
2019-04-11T08:25:37.605Z,11.97
2019-04-11T08:28:13.626Z,11.50
2019-04-11T08:30:43.325Z,10.93
2019-04-11T08:33:14.273Z,12.97
2019-04-11T08:35:45.561Z,13.27
2019-04-11T08:38:18.503Z,12.27
2019-04-11T08:40:49.816Z,12.23
2019-04-11T08:43:21.342Z,11.53
2019-04-11T08:46:04.689Z,11.23
2019-04-11T08:48:37.129Z,8.87
2019-04-11T08:51:09.713Z,12.30
2019-04-11T08:53:40.970Z,12.00
2019-04-11T08:56:10.836Z,10.67
2019-04-11T08:58:41.980Z,10.83
2019-04-11T09:01:13.769Z,12.00
2019-04-11T09:03:56.689Z,11.13
2019-04-11T09:06:18.816Z,11.77
2019-04-11T09:08:51.074Z,12.23
2019-04-11T09:11:22.562Z,10.23
2019-04-11T09:13:53.770Z,11.20
2019-04-11T09:16:25.773Z,10.97
2019-04-11T09:18:59.309Z,11.33
2019-04-11T09:21:29.625Z,12.77
2019-04-11T09:24:00.195Z,11.60
2019-04-11T09:26:32.030Z,10.97
2019-04-11T09:29:01.889Z,10.80
2019-04-11T09:31:33.778Z,10.97
2019-04-11T09:34:05.788Z,10.10
2019-04-11T09:36:37.010Z,12.87
2019-04-11T09:39:10.847Z,11.03
2019-04-11T09:41:42.749Z,11.77
2019-04-11T09:44:14.852Z,10.77
2019-04-11T09:46:46.254Z,11.53
2019-04-11T09:49:15.616Z,12.47
2019-04-11T09:51:47.685Z,9.27
2019-04-11T09:54:19.807Z,12.53
2019-04-11T09:56:51.771Z,12.53
2019-04-11T09:59:24.947Z,10.97
2019-04-11T10:01:56.317Z,11.10
2019-04-11T10:04:27.708Z,9.40
2019-04-11T10:06:59.206Z,11.73
2019-04-11T10:09:30.409Z,10.77
2019-04-11T10:12:02.418Z,8.73
2019-04-11T10:14:33.395Z,8.13
2019-04-11T10:17:08.565Z,9.97
2019-04-11T10:19:38.667Z,10.07
2019-04-11T10:22:10.961Z,10.00
2019-04-11T10:24:42.913Z,10.97
2019-04-11T10:27:14.353Z,10.40
2019-04-11T10:29:45.595Z,11.17
2019-04-11T10:32:17.027Z,10.23
2019-04-11T10:34:50.009Z,11.30
2019-04-11T10:37:21.175Z,11.80
2019-04-11T10:39:51.333Z,10.63
2019-04-11T10:42:22.175Z,10.87
2019-04-11T10:44:54.114Z,11.60
2019-04-11T10:47:25.268Z,11.70
2019-04-11T10:49:56.740Z,10.93
2019-04-11T10:52:28.756Z,10.47
2019-04-11T10:55:00.858Z,10.37
2019-04-11T10:57:33.140Z,9.47
2019-04-11T11:00:05.123Z,10.43
2019-04-11T11:02:36.360Z,10.00
2019-04-11T11:05:09.337Z,11.00
2019-04-11T11:07:40.580Z,10.27
2019-04-11T11:10:11.729Z,10.27
2019-04-11T11:12:41.414Z,10.30
2019-04-11T11:15:13.667Z,11.40
2019-04-11T11:18:11.466Z,12.40
2019-04-11T11:20:26.379Z,10.87
2019-04-11T11:22:51.695Z,9.97
2019-04-11T11:25:22.940Z,9.00
2019-04-11T11:27:52.417Z,9.17
2019-04-11T11:30:23.577Z,10.27
2019-04-11T11:32:53.863Z,10.13
2019-04-11T11:35:29.729Z,9.87
2019-04-11T11:37:57.576Z,8.50
2019-04-11T11:40:29.913Z,10.13
2019-04-11T11:43:01.190Z,10.30
2019-04-11T11:45:33.215Z,9.27
2019-04-11T11:48:08.876Z,10.13
2019-04-11T11:50:36.548Z,8.77
2019-04-11T11:53:12.683Z,10.00
2019-04-11T11:55:41.258Z,10.77
2019-04-11T11:58:16.677Z,9.60
2019-04-11T12:00:48.063Z,10.43
2019-04-11T12:03:19.153Z,11.03
2019-04-11T12:05:53.664Z,11.00
2019-04-11T12:08:24.531Z,10.23
2019-04-11T12:10:55.718Z,9.20
2019-04-11T12:13:26.846Z,10.43
2019-04-11T12:15:57.956Z,9.57
2019-04-11T12:18:28.990Z,9.70
2019-04-11T12:21:01.167Z,8.77
2019-04-11T12:23:44.772Z,8.30
2019-04-11T12:26:05.418Z,8.07
2019-04-11T12:28:38.462Z,8.47
2019-04-11T12:31:09.354Z,7.97
2019-04-11T12:33:41.569Z,8.17
2019-04-11T12:36:14.676Z,8.80
2019-04-11T12:38:45.902Z,8.23
2019-04-11T12:41:16.960Z,9.27
2019-04-11T12:43:48.089Z,8.93
2019-04-11T12:46:29.475Z,9.30
2019-04-11T12:48:50.681Z,9.53
2019-04-11T12:51:21.819Z,9.37
2019-04-11T12:53:51.299Z,8.60
2019-04-11T12:56:22.341Z,8.77
2019-04-11T12:58:52.905Z,8.90
2019-04-11T13:01:24.484Z,8.73
2019-04-11T13:03:55.655Z,8.50
2019-04-11T13:06:35.202Z,7.97
2019-04-11T13:08:59.686Z,8.33
2019-04-11T13:11:30.944Z,8.57
2019-04-11T13:14:02.017Z,8.70
2019-04-11T13:16:31.529Z,9.20
2019-04-11T13:19:00.703Z,8.10
2019-04-11T13:21:33.098Z,9.27
2019-04-11T13:24:04.139Z,8.43
2019-04-11T13:26:35.233Z,8.50
2019-04-11T13:29:06.297Z,10.50
2019-04-11T13:31:37.341Z,9.80
2019-04-11T13:34:11.109Z,9.30
2019-04-11T13:36:41.686Z,9.53
2019-04-11T13:39:11.427Z,8.43
2019-04-11T13:41:42.614Z,8.77
2019-04-11T13:44:13.915Z,9.20
2019-04-11T13:46:45.080Z,9.33
2019-04-11T13:49:16.381Z,10.40
2019-04-11T13:51:47.486Z,8.90
2019-04-11T13:54:18.667Z,10.67
2019-04-11T13:56:48.068Z,8.87
2019-04-11T13:59:17.395Z,9.90
2019-04-11T14:01:48.448Z,9.20
2019-04-11T14:04:19.472Z,11.10
2019-04-11T14:06:49.814Z,10.13
2019-04-11T14:09:20.965Z,9.20
2019-04-11T14:11:50.591Z,9.00
2019-04-11T14:14:21.822Z,10.00
2019-04-11T14:16:53.033Z,9.97
2019-04-11T14:19:24.117Z,9.40
2019-04-11T14:21:53.785Z,9.47
2019-04-11T14:24:24.842Z,10.77
2019-04-11T14:26:55.884Z,10.60
2019-04-11T14:29:27.081Z,9.37
2019-04-11T14:31:58.169Z,9.83
2019-04-11T14:34:29.479Z,9.43
2019-04-11T14:37:00.760Z,10.43
2019-04-11T14:39:31.802Z,9.00
2019-04-11T14:42:02.837Z,10.40
2019-04-11T14:44:33.955Z,10.60
2019-04-11T14:47:06.846Z,10.30
2019-04-11T14:49:40.745Z,10.67
2019-04-11T14:52:12.072Z,9.73
2019-04-11T14:54:43.482Z,10.80
2019-04-11T14:57:14.542Z,10.27
2019-04-11T14:59:45.634Z,10.90
2019-04-11T15:02:17.114Z,10.40
2019-04-11T15:04:48.255Z,10.27
2019-04-11T15:07:19.387Z,10.20
2019-04-11T15:09:48.553Z,10.53
2019-04-11T15:12:19.559Z,11.67
2019-04-11T15:14:51.881Z,11.50
2019-04-11T15:17:24.281Z,12.27
2019-04-11T15:19:56.275Z,11.43
2019-04-11T15:22:27.353Z,13.27
2019-04-11T15:24:58.356Z,13.43
2019-04-11T15:27:29.416Z,13.57
2019-04-11T15:30:00.405Z,11.63
2019-04-11T15:32:33.193Z,14.20
2019-04-11T15:35:02.606Z,14.90
2019-04-11T15:37:33.765Z,14.80
2019-04-11T15:40:05.260Z,17.77
2019-04-11T15:42:37.788Z,14.13
2019-04-11T15:45:09.176Z,14.10
2019-04-11T15:47:40.179Z,13.37
2019-04-11T15:50:11.267Z,12.20
2019-04-11T15:52:42.319Z,12.23
2019-04-11T15:55:14.383Z,13.23
2019-04-11T15:57:44.554Z,14.80
2019-04-11T16:00:15.798Z,15.63
2019-04-11T16:02:45.075Z,16.10
2019-04-11T16:05:16.203Z,15.67
2019-04-11T16:07:47.221Z,19.17
2019-04-11T16:10:16.995Z,13.27
2019-04-11T16:12:48.002Z,14.43
2019-04-11T16:15:18.890Z,16.20
2019-04-11T16:17:49.973Z,13.10
2019-04-11T16:20:19.459Z,13.20
2019-04-11T16:22:54.892Z,77.23
2019-04-11T16:25:22.206Z,48.87
2019-04-11T16:27:53.379Z,23.90
2019-04-11T16:30:24.419Z,13.77
2019-04-11T16:32:55.608Z,11.47
2019-04-11T16:35:26.042Z,10.80
2019-04-11T16:38:00.351Z,10.90
2019-04-11T16:40:30.457Z,11.67
2019-04-11T16:43:01.572Z,14.87
2019-04-11T16:45:32.665Z,16.63
2019-04-11T16:48:03.696Z,17.33
2019-04-11T16:50:33.158Z,16.53
2019-04-11T16:53:02.856Z,17.63
2019-04-11T16:55:32.379Z,16.90
2019-04-11T16:58:01.955Z,16.00
2019-04-11T17:00:31.607Z,16.07
2019-04-11T17:03:01.170Z,15.50
2019-04-11T17:05:30.917Z,16.20
2019-04-11T17:08:02.020Z,16.20
2019-04-11T17:10:33.089Z,19.33
2019-04-11T17:13:02.667Z,18.33
2019-04-11T17:15:32.047Z,17.40
2019-04-11T17:18:02.161Z,19.47
2019-04-11T17:20:35.713Z,21.73
2019-04-11T17:23:03.763Z,21.23
2019-04-11T17:25:33.319Z,23.17
2019-04-11T17:28:04.422Z,25.93
2019-04-11T17:30:34.027Z,34.00
2019-04-11T17:33:03.637Z,34.70
2019-04-11T17:35:33.018Z,19.63
2019-04-11T17:38:04.165Z,35.67
2019-04-11T17:40:34.992Z,29.20
2019-04-11T17:43:04.799Z,28.27
2019-04-11T17:45:34.279Z,36.73
2019-04-11T17:48:03.805Z,37.90
2019-04-11T17:50:35.010Z,36.83
2019-04-11T17:53:04.789Z,22.23
2019-04-11T17:55:34.601Z,21.33
2019-04-11T17:58:04.165Z,19.73
2019-04-11T18:00:35.335Z,26.30
2019-04-11T18:03:05.498Z,77.60
2019-04-11T18:05:34.960Z,30.80
2019-04-11T18:08:04.496Z,42.43
2019-04-11T18:10:33.983Z,20.63
2019-04-11T18:13:03.541Z,30.53
2019-04-11T18:15:32.962Z,25.13
2019-04-11T18:18:03.226Z,21.70
2019-04-11T18:20:36.819Z,18.03
2019-04-11T18:23:05.073Z,17.53
2019-04-11T18:25:34.496Z,20.37
2019-04-11T18:28:05.089Z,18.93
2019-04-11T18:30:34.630Z,18.20
2019-04-11T18:33:04.224Z,23.03
2019-04-11T18:35:33.928Z,25.37
2019-04-11T18:38:03.446Z,27.47
2019-04-11T18:40:32.969Z,24.30
2019-04-11T18:43:02.795Z,25.83
2019-04-11T18:45:32.301Z,27.53
2019-04-11T18:48:01.824Z,27.03
2019-04-11T18:50:31.302Z,25.47
2019-04-11T18:53:00.879Z,27.40
2019-04-11T18:55:30.494Z,23.33
2019-04-11T18:58:01.751Z,22.03
2019-04-11T19:00:31.424Z,20.10
2019-04-11T19:03:01.073Z,20.00
2019-04-11T19:05:30.859Z,21.97
2019-04-11T19:08:00.330Z,26.40
2019-04-11T19:10:31.304Z,19.63
2019-04-11T19:13:00.903Z,18.97
2019-04-11T19:15:30.379Z,21.07
2019-04-11T19:18:06.134Z,18.67
2019-04-11T19:23:34.328Z,16.07
2019-04-11T19:26:04.230Z,15.17
2019-04-11T19:28:34.001Z,13.73
2019-04-11T19:31:03.451Z,14.20
2019-04-11T19:33:34.235Z,14.63
2019-04-11T19:36:04.448Z,15.30
2019-04-11T19:38:37.292Z,13.30
2019-04-11T19:41:06.922Z,14.03
2019-04-11T19:43:37.181Z,13.10
2019-04-11T19:46:07.522Z,13.70
2019-04-11T19:48:37.758Z,13.17
2019-04-11T19:51:10.904Z,12.57
2019-04-11T19:53:41.942Z,12.27
2019-04-11T19:56:13.007Z,11.43
2019-04-11T19:58:43.545Z,9.07
2019-04-11T20:01:14.746Z,8.97
2019-04-11T20:03:44.240Z,8.27
2019-04-11T20:06:13.754Z,7.60
2019-04-11T20:08:43.267Z,8.50
2019-04-11T20:11:12.637Z,8.47
2019-04-11T20:13:42.146Z,7.00
2019-04-11T20:16:12.503Z,7.83
2019-04-11T20:18:50.995Z,8.03
2019-04-11T20:21:13.942Z,7.73
2019-04-11T20:23:43.432Z,7.40
2019-04-11T20:26:12.945Z,6.63
2019-04-11T20:28:42.778Z,7.33
2019-04-11T20:31:13.332Z,7.07
2019-04-11T20:33:42.921Z,7.33
2019-04-11T20:36:13.529Z,7.17
2019-04-11T20:38:44.732Z,7.53
2019-04-11T20:41:14.224Z,8.30
2019-04-11T20:43:43.613Z,9.70
2019-04-11T20:46:13.558Z,6.63
2019-04-11T20:48:43.072Z,7.30
2019-04-11T20:51:12.570Z,7.67
2019-04-11T20:53:41.967Z,7.20
2019-04-11T20:56:23.575Z,6.83
2019-04-11T20:58:43.617Z,6.63
2019-04-11T21:01:13.075Z,6.83
2019-04-11T21:03:42.440Z,6.33
2019-04-11T21:06:12.010Z,6.90
2019-04-11T21:08:41.418Z,6.40
2019-04-11T21:11:10.812Z,5.20
2019-04-11T21:13:40.323Z,6.57
2019-04-11T21:16:09.696Z,6.77
2019-04-11T21:18:39.090Z,6.60
2019-04-11T21:21:08.651Z,6.80
2019-04-11T21:23:38.091Z,6.17
2019-04-11T21:26:07.487Z,5.80
2019-04-11T21:28:36.873Z,6.23
2019-04-11T21:31:06.443Z,6.53
2019-04-11T21:33:35.832Z,5.90
2019-04-11T21:36:05.448Z,5.50
2019-04-11T21:38:34.921Z,6.40
2019-04-11T21:41:06.110Z,6.97
2019-04-11T21:43:36.854Z,5.83
2019-04-11T21:46:06.805Z,5.47
2019-04-11T21:48:36.986Z,6.37
2019-04-11T21:51:06.385Z,6.17
2019-04-11T21:53:36.966Z,6.33
2019-04-11T21:56:06.689Z,6.17
2019-04-11T21:58:36.143Z,5.63
2019-04-11T22:01:08.576Z,5.77
2019-04-11T22:03:38.388Z,5.70
2019-04-11T22:06:07.979Z,5.10
2019-04-11T22:08:37.466Z,4.90
2019-04-11T22:11:10.178Z,5.67
2019-04-11T22:13:40.307Z,6.13
2019-04-11T22:16:13.472Z,6.07
2019-04-11T22:18:44.321Z,6.80
2019-04-11T22:21:15.421Z,5.87
2019-04-11T22:23:48.951Z,5.57
2019-04-11T22:26:15.267Z,6.63
2019-04-11T22:28:44.833Z,5.40
2019-04-11T22:31:14.433Z,5.10
2019-04-11T22:33:45.608Z,5.77
2019-04-11T22:36:15.172Z,5.90
2019-04-11T22:38:44.803Z,5.57
2019-04-11T22:41:14.282Z,5.40
2019-04-11T22:43:43.849Z,5.37
2019-04-11T22:46:20.476Z,5.13
2019-04-11T22:48:44.574Z,6.30
2019-04-11T22:51:13.974Z,6.03
2019-04-11T22:53:44.003Z,5.47
2019-04-11T22:56:13.669Z,5.80
2019-04-11T22:58:43.713Z,5.50
2019-04-11T23:01:16.541Z,5.67
2019-04-11T23:03:47.668Z,5.70
2019-04-11T23:06:17.769Z,5.67
2019-04-11T23:08:48.999Z,5.43
2019-04-11T23:11:18.570Z,6.37
2019-04-11T23:13:48.323Z,5.80
2019-04-11T23:16:17.895Z,5.53
2019-04-11T23:18:47.276Z,5.03
2019-04-11T23:21:16.788Z,5.90
2019-04-11T23:23:46.162Z,5.70
2019-04-11T23:26:15.638Z,5.27
2019-04-11T23:28:46.743Z,5.60
2019-04-11T23:31:19.954Z,5.10
2019-04-11T23:33:51.714Z,5.27
2019-04-11T23:36:21.204Z,5.53
2019-04-11T23:38:52.724Z,5.83
2019-04-11T23:41:21.794Z,5.30
2019-04-11T23:43:51.440Z,5.50
2019-04-11T23:46:21.406Z,5.60
2019-04-11T23:48:54.754Z,5.13
2019-04-11T23:51:25.393Z,5.17
2019-04-11T23:53:53.835Z,5.13
2019-04-11T23:56:23.297Z,5.13
2019-04-11T23:58:52.771Z,5.33
